Route Details

Aircraft Information
Group: North America Fleet
Types: B738, B752, B762, B763
Route Data
Distance: 719nm
Duration: 2h 14m
Origin METAR: KDEN 010353Z 25006KT 10SM CLR M14/M18 A3005 RMK AO2 SLP264 T11441183
Dest. METAR: KRFD 010454Z 19004KT 10SM CLR M18/M22 A3037 RMK AO2 SLP303 T11831222
Freight Data
(for Feb 1, 2023)
Load Factor:
32%
Manifested Cargo: 30,944lbs
Financial History
Total Freight: 174,980lbs
Average Load: 0lbs/flt
Fuel Used: 72,594lbs
Avg. Fuel Used: 0lbs/flt
Fuel Expense: $41,078
Avg. Fuel Expense: $0
Avg. Fuel Cost: $0/lbs
Total Gross Income: $369,293
Pilot Pay: $955
Total Expenses: $61,580
Total Revenue: $264,448
Average Revenue: $0

Capitol Logistics 444




KDEN
Denver International Airport
Denver, Colorado
KRFD
Chicago/Rockford International Airport
Rockford, Illinois

Activity Log

Date Flight Route Aircraft Duration
10/27/2022 CPX444 WYNDM HCT OVR CID RFD B763 1h 49m
06/30/2022 CPX293 HHOTH2 JOBBA DCT BFF DCT FOD J94 DBQ DCT B763 2h 14m
06/30/2022 CPX293 HHOTH2 JOBBA DCT BFF DCT FOD J94 DBQ DCT B763 2h 14m
05/18/2022 CPX293 EEONS8 WYNDM OBH J100 DBQ B752 1h 54m
11/27/2021 CPX293 EEONS8 WYNDM HCT LNK J146 IOW RFD B752 1h 37m